Time;durP1;ratioP1;P1;durP2;ratioP2;P2;SDS_P1;SDS_P2;PMS_P1;PMS_P2;Temp;Humidity;BMP_temperature;BMP_pressure;BME280_temperature;BME280_humidity;BME280_pressure;Samples;Min_cycle;Max_cycle;Signal;HPM_P1;HPM_P2
2021/04/05 00:01:53;;;;;;;;;;;6.80;99.90;;;;;;5116829;27;19919;-65
2021/04/05 00:04:26;;;;;;;;;;;6.80;99.90;;;;;;5118748;27;19927;-65
2021/04/05 00:06:59;;;;;;;;;;;6.80;99.90;;;;;;5136518;27;20332;-64
2021/04/05 00:09:26;;;;;;;;;;;6.80;99.90;;;;;;5136780;27;20437;-65
2021/04/05 00:11:59;;;;;;;;;;;6.80;99.90;;;;;;5134877;27;20006;-65
2021/04/05 00:14:33;;;;;;;;;;;6.90;99.90;;;;;;5134573;27;20018;-66
2021/04/05 00:16:58;;;;;;;;;;;6.80;99.90;;;;;;5095845;28;20413;-66
2021/04/05 00:19:31;;;;;;;;;;;6.80;99.90;;;;;;5111427;28;19923;-66
2021/04/05 00:22:02;;;;;;;;;;;6.80;99.90;;;;;;5136001;27;20393;-66
2021/04/05 00:24:30;;;;;;;;;;;6.90;99.90;;;;;;5126099;27;19927;-66
2021/04/05 00:27:03;;;;;;;;;;;6.90;99.90;;;;;;5125448;27;19920;-66
2021/04/05 00:33:16;;;;;;;;;;;6.90;99.90;;;;;;5118986;27;19916;-66
2021/04/05 00:39:34;;;;;;;;;;;7.00;99.90;;;;;;5132296;27;20377;-66
2021/04/05 00:42:05;;;;;;;;;;;7.00;99.90;;;;;;5133507;27;19942;-66
2021/04/05 00:44:33;;;;;;;;;;;7.00;99.90;;;;;;5095394;28;19920;-66
2021/04/05 00:47:04;;;;;;;;;;;7.10;99.90;;;;;;5115714;27;19923;-65
2021/04/05 00:49:37;;;;;;;;;;;7.10;99.90;;;;;;5136077;27;19930;-65
2021/04/05 00:52:12;;;;;;;;;;;7.20;99.90;;;;;;5135863;27;19919;-65
2021/04/05 01:05:31;;;;;;;;;;;7.40;99.90;;;;;;5135595;27;19968;-65
2021/04/05 01:12:11;;;;;;;;;;;7.50;99.90;;;;;;5115162;28;19914;-65
2021/04/05 01:14:38;;;;;;;;;;;7.60;99.90;;;;;;5130004;27;19920;-65
2021/04/05 01:17:16;;;;;;;;;;;7.60;99.90;;;;;;5135669;27;19919;-65
2021/04/05 01:19:42;;;;;;;;;;;7.60;99.90;;;;;;5119660;27;20362;-66
2021/04/05 01:22:16;;;;;;;;;;;7.60;99.90;;;;;;5135161;27;19926;-66
2021/04/05 01:24:44;;;;;;;;;;;7.70;99.90;;;;;;5119715;27;19925;-65
2021/04/05 01:27:40;;;;;;;;;;;7.70;99.90;;;;;;5123049;27;20017;-65
2021/04/05 01:37:10;;;;;;;;;;;7.70;99.90;;;;;;5116948;27;19918;-65
2021/04/05 01:39:44;;;;;;;;;;;7.70;99.90;;;;;;5122351;27;19920;-65
2021/04/05 01:42:13;;;;;;;;;;;7.80;99.90;;;;;;5092980;28;19924;-65
2021/04/05 01:44:43;;;;;;;;;;;7.70;99.90;;;;;;5122426;27;19919;-65
2021/04/05 01:47:14;;;;;;;;;;;7.80;99.90;;;;;;5123629;27;19943;-65
2021/04/05 01:49:42;;;;;;;;;;;7.70;99.90;;;;;;5116119;27;19919;-65
2021/04/05 01:52:20;;;;;;;;;;;7.70;99.90;;;;;;5123224;27;19972;-65
2021/04/05 01:55:02;;;;;;;;;;;7.70;99.90;;;;;;5095405;28;19923;-65
2021/04/05 01:57:48;;;;;;;;;;;7.70;99.90;;;;;;5135340;27;20365;-65
2021/04/05 02:00:27;;;;;;;;;;;7.70;99.90;;;;;;5102549;28;19971;-65
2021/04/05 02:03:13;;;;;;;;;;;7.70;99.90;;;;;;5134590;27;19923;-66
2021/04/05 02:12:16;;;;;;;;;;;7.80;99.90;;;;;;5106764;28;19963;-65
2021/04/05 02:15:03;;;;;;;;;;;7.70;99.90;;;;;;5130038;28;19976;-65
2021/04/05 02:17:47;;;;;;;;;;;7.70;99.90;;;;;;5129187;28;19925;-65
2021/04/05 02:27:16;;;;;;;;;;;7.70;99.90;;;;;;5117547;28;19924;-65
2021/04/05 02:29:50;;;;;;;;;;;7.70;99.90;;;;;;5114479;28;19920;-66
2021/04/05 02:32:22;;;;;;;;;;;7.70;99.90;;;;;;5093617;28;20015;-65
2021/04/05 02:34:48;;;;;;;;;;;7.70;99.90;;;;;;5134287;28;20290;-65
2021/04/05 02:37:16;;;;;;;;;;;7.70;99.90;;;;;;5130656;28;19919;-66
2021/04/05 02:39:48;;;;;;;;;;;7.60;99.90;;;;;;5118318;28;19924;-66
2021/04/05 02:42:19;;;;;;;;;;;7.60;99.90;;;;;;5114186;28;19920;-65
2021/04/05 02:44:51;;;;;;;;;;;7.60;99.90;;;;;;5109900;28;19926;-66
2021/04/05 02:47:32;;;;;;;;;;;7.60;99.90;;;;;;5113773;28;19964;-64
2021/04/05 02:50:26;;;;;;;;;;;7.60;99.90;;;;;;5115365;28;20382;-65
2021/04/05 02:52:52;;;;;;;;;;;7.60;99.90;;;;;;5096612;28;19919;-65
2021/04/05 02:55:18;;;;;;;;;;;7.60;99.90;;;;;;5121053;28;20373;-64
2021/04/05 03:04:50;;;;;;;;;;;7.60;99.90;;;;;;5131579;28;19955;-65
2021/04/05 03:07:24;;;;;;;;;;;7.70;99.90;;;;;;5094373;28;19920;-65
2021/04/05 03:09:51;;;;;;;;;;;7.70;99.90;;;;;;5131738;28;19973;-65
2021/04/05 03:22:31;;;;;;;;;;;7.00;99.90;;;;;;5097125;28;20282;-65
2021/04/05 03:25:00;;;;;;;;;;;6.90;99.90;;;;;;5102305;28;20263;-65
2021/04/05 03:37:40;;;;;;;;;;;6.40;99.90;;;;;;5096617;27;19961;-65
2021/04/05 03:40:07;;;;;;;;;;;6.30;99.90;;;;;;5096691;28;19955;-65
2021/04/05 03:42:39;;;;;;;;;;;6.30;99.90;;;;;;5126716;27;20328;-65
2021/04/05 03:45:10;;;;;;;;;;;6.20;99.90;;;;;;5137454;27;20341;-65
2021/04/05 03:50:43;;;;;;;;;;;5.90;99.90;;;;;;5117030;28;19926;-65
2021/04/05 03:53:13;;;;;;;;;;;5.90;99.90;;;;;;5113515;28;19927;-65
2021/04/05 04:02:42;;;;;;;;;;;5.60;99.90;;;;;;5096815;28;19962;-65
2021/04/05 04:05:50;;;;;;;;;;;5.50;99.90;;;;;;5136865;27;20450;-65
2021/04/05 04:08:42;;;;;;;;;;;5.40;99.90;;;;;;5106995;27;19919;-65
2021/04/05 04:11:33;;;;;;;;;;;5.40;99.90;;;;;;5131780;27;19927;-66
2021/04/05 04:17:39;;;;;;;;;;;5.10;99.90;;;;;;5132202;27;20005;-65
2021/04/05 04:20:12;;;;;;;;;;;4.90;99.90;;;;;;5122166;27;19919;-66
2021/04/05 04:22:41;;;;;;;;;;;4.80;99.90;;;;;;5097832;28;20321;-65
2021/04/05 04:25:19;;;;;;;;;;;4.70;99.90;;;;;;5105128;27;19959;-65
2021/04/05 04:37:41;;;;;;;;;;;4.50;99.90;;;;;;5119566;27;20266;-65
2021/04/05 04:40:16;;;;;;;;;;;4.50;99.90;;;;;;5115742;28;19920;-65
2021/04/05 04:42:42;;;;;;;;;;;4.50;99.90;;;;;;5106956;27;19958;-65
2021/04/05 04:45:14;;;;;;;;;;;4.50;99.90;;;;;;5095294;28;19951;-65
2021/04/05 04:47:46;;;;;;;;;;;4.50;99.90;;;;;;5114674;27;19946;-65
2021/04/05 04:50:24;;;;;;;;;;;4.50;99.90;;;;;;5130668;27;19920;-65
2021/04/05 04:52:51;;;;;;;;;;;4.20;99.90;;;;;;5116728;27;19920;-65
2021/04/05 04:55:17;;;;;;;;;;;3.90;99.90;;;;;;5125662;27;19923;-65
2021/04/05 04:57:55;;;;;;;;;;;3.80;99.90;;;;;;5126470;27;20021;-65
2021/04/05 05:00:41;;;;;;;;;;;3.70;99.90;;;;;;5091722;27;19916;-65
2021/04/05 05:03:10;;;;;;;;;;;3.70;99.90;;;;;;5099750;28;19926;-65
2021/04/05 05:05:46;;;;;;;;;;;3.60;99.90;;;;;;5115968;28;19919;-66
2021/04/05 05:08:18;;;;;;;;;;;3.60;99.90;;;;;;5116197;27;20428;-63
2021/04/05 05:10:51;;;;;;;;;;;3.60;99.90;;;;;;5111343;28;19958;-61
2021/04/05 05:13:17;;;;;;;;;;;3.60;99.90;;;;;;5121615;27;19915;-62
2021/04/05 05:22:35;;;;;;;;;;;3.60;99.90;;;;;;5119178;27;19945;-63
2021/04/05 05:28:30;;;;;;;;;;;3.50;99.90;;;;;;5128127;27;19915;-64
2021/04/05 05:37:32;;;;;;;;;;;3.30;99.90;;;;;;5114681;28;19931;-63
2021/04/05 05:40:08;;;;;;;;;;;3.30;99.90;;;;;;5113927;28;19920;-64
2021/04/05 05:52:34;;;;;;;;;;;3.20;99.90;;;;;;5127288;27;19914;-64
2021/04/05 05:55:12;;;;;;;;;;;3.20;99.90;;;;;;5128848;27;19930;-64
2021/04/05 05:57:44;;;;;;;;;;;3.20;99.90;;;;;;5132665;27;19915;-65
2021/04/05 06:00:40;;;;;;;;;;;3.20;99.90;;;;;;5096839;28;19931;-66
2021/04/05 06:03:20;;;;;;;;;;;3.20;99.90;;;;;;5113088;28;19962;-65
2021/04/05 06:06:14;;;;;;;;;;;3.20;99.90;;;;;;5124106;28;20010;-65
2021/04/05 06:15:16;;;;;;;;;;;3.40;99.90;;;;;;5120217;28;20359;-64
2021/04/05 06:18:15;;;;;;;;;;;3.40;99.90;;;;;;5112099;28;20290;-63
2021/04/05 06:24:21;;;;;;;;;;;3.40;99.90;;;;;;5119149;28;19919;-64
2021/04/05 06:30:11;;;;;;;;;;;3.40;99.90;;;;;;5112012;28;19914;-65
2021/04/05 06:43:06;;;;;;;;;;;3.40;99.90;;;;;;5115470;28;19969;-63
2021/04/05 06:45:57;;;;;;;;;;;3.40;99.90;;;;;;5122640;28;19926;-65
2021/04/05 06:55:20;;;;;;;;;;;3.10;99.90;;;;;;5115396;27;19963;-65
2021/04/05 06:58:15;;;;;;;;;;;3.10;99.90;;;;;;5134817;27;19919;-65
2021/04/05 07:04:10;;;;;;;;;;;3.10;99.90;;;;;;5126425;27;19953;-65
2021/04/05 07:10:23;;;;;;;;;;;3.30;99.90;;;;;;5137060;27;19913;-65
2021/04/05 07:13:09;;;;;;;;;;;3.30;99.90;;;;;;5127180;27;20449;-65
2021/04/05 07:25:50;;;;;;;;;;;3.60;99.90;;;;;;5121994;27;19919;-65
2021/04/05 07:35:24;;;;;;;;;;;3.10;99.90;;;;;;5135319;27;19957;-64
2021/04/05 07:54:52;;;;;;;;;;;0.80;99.90;;;;;;5134576;27;19923;-65
2021/04/05 08:04:19;;;;;;;;;;;1.20;99.90;;;;;;5134766;27;19918;-65
2021/04/05 08:07:10;;;;;;;;;;;1.20;99.90;;;;;;5118593;27;20021;-65
2021/04/05 08:10:00;;;;;;;;;;;1.30;99.90;;;;;;5120613;27;19920;-66
2021/04/05 08:19:30;;;;;;;;;;;1.50;99.90;;;;;;5115960;28;19961;-64
2021/04/05 08:25:06;;;;;;;;;;;1.50;99.90;;;;;;5121479;27;20295;-63
2021/04/05 08:28:02;;;;;;;;;;;1.60;99.90;;;;;;5114558;27;19920;-63
2021/04/05 08:34:23;;;;;;;;;;;1.80;99.90;;;;;;5136308;27;19930;-64
2021/04/05 08:36:58;;;;;;;;;;;2.00;99.90;;;;;;5118135;27;19926;-64
2021/04/05 08:39:45;;;;;;;;;;;2.20;99.90;;;;;;5136095;27;19919;-64
2021/04/05 08:42:39;;;;;;;;;;;2.50;99.90;;;;;;5119312;27;19927;-64
2021/04/05 08:45:23;;;;;;;;;;;2.50;99.90;;;;;;5112818;27;19923;-64
2021/04/05 08:48:06;;;;;;;;;;;2.50;99.90;;;;;;5126689;27;19923;-63
2021/04/05 08:56:58;;;;;;;;;;;2.10;99.90;;;;;;5117120;27;20282;-66
2021/04/05 08:59:43;;;;;;;;;;;2.10;99.90;;;;;;5094911;28;19916;-64
2021/04/05 09:12:14;;;;;;;;;;;2.10;99.90;;;;;;5095992;28;20020;-66
2021/04/05 09:15:08;;;;;;;;;;;2.10;99.90;;;;;;5122095;27;20370;-67
2021/04/05 09:34:43;;;;;;;;;;;3.30;99.90;;;;;;5118264;27;20009;-68
2021/04/05 09:37:29;;;;;;;;;;;3.40;99.90;;;;;;5097511;27;19924;-67
2021/04/05 09:43:43;;;;;;;;;;;3.50;99.90;;;;;;5122621;27;20003;-64
2021/04/05 09:46:20;;;;;;;;;;;3.50;99.90;;;;;;5117613;27;19959;-65
2021/04/05 09:52:23;;;;;;;;;;;3.70;99.90;;;;;;5095036;28;20014;-64
2021/04/05 09:55:07;;;;;;;;;;;3.70;99.90;;;;;;5124211;27;19926;-64
2021/04/05 09:57:41;;;;;;;;;;;3.80;99.90;;;;;;5116229;27;19919;-68
2021/04/05 10:00:41;;;;;;;;;;;3.80;99.90;;;;;;5100183;28;19916;-67
2021/04/05 10:07:01;;;;;;;;;;;3.70;99.90;;;;;;5126317;28;19914;-67
2021/04/05 10:09:30;;;;;;;;;;;3.60;99.90;;;;;;5109951;28;19919;-67
2021/04/05 10:12:00;;;;;;;;;;;3.70;99.90;;;;;;5096092;28;19926;-66
2021/04/05 10:14:33;;;;;;;;;;;3.80;99.90;;;;;;5112396;28;19927;-65
2021/04/05 10:17:07;;;;;;;;;;;3.70;99.90;;;;;;5096045;28;19920;-67
2021/04/05 10:19:36;;;;;;;;;;;3.70;99.90;;;;;;5130681;28;19942;-67
2021/04/05 10:22:14;;;;;;;;;;;3.70;99.90;;;;;;5120615;28;19920;-67
2021/04/05 10:25:12;;;;;;;;;;;3.70;99.90;;;;;;5116513;27;19923;-65
2021/04/05 10:27:54;;;;;;;;;;;3.80;99.90;;;;;;5136372;27;19920;-68
2021/04/05 10:37:10;;;;;;;;;;;3.90;99.90;;;;;;5125451;27;20006;-69
2021/04/05 10:39:53;;;;;;;;;;;3.70;99.90;;;;;;5095406;28;20374;-67
2021/04/05 10:42:25;;;;;;;;;;;3.40;99.90;;;;;;5123905;27;19969;-67
2021/04/05 10:45:28;;;;;;;;;;;3.20;99.90;;;;;;5134158;27;19920;-67
2021/04/05 10:54:50;;;;;;;;;;;3.40;99.90;;;;;;5127428;27;19919;-70
2021/04/05 10:57:37;;;;;;;;;;;3.50;99.90;;;;;;5121014;27;19927;-68
2021/04/05 11:00:14;;;;;;;;;;;3.60;99.90;;;;;;5124331;27;20006;-68
2021/04/05 11:03:03;;;;;;;;;;;3.40;99.90;;;;;;5123839;27;19930;-66
2021/04/05 11:05:36;;;;;;;;;;;3.20;99.90;;;;;;5118116;28;19942;-65
2021/04/05 11:14:55;;;;;;;;;;;3.30;99.90;;;;;;5118813;27;20026;-66
2021/04/05 11:17:29;;;;;;;;;;;3.70;99.90;;;;;;5110975;28;19920;-66
2021/04/05 11:23:14;;;;;;;;;;;3.90;99.90;;;;;;5113032;27;20362;-65
2021/04/05 11:25:57;;;;;;;;;;;4.00;99.90;;;;;;5123363;27;20010;-65
2021/04/05 11:28:27;;;;;;;;;;;4.00;99.90;;;;;;5102043;27;19919;-65
2021/04/05 11:34:52;;;;;;;;;;;4.30;99.90;;;;;;5118722;27;19952;-66
2021/04/05 11:37:21;;;;;;;;;;;4.40;99.90;;;;;;5124705;27;19919;-67
2021/04/05 11:40:04;;;;;;;;;;;4.30;99.90;;;;;;5133125;27;19926;-67
2021/04/05 11:42:42;;;;;;;;;;;4.20;99.90;;;;;;5116282;27;20367;-67
2021/04/05 11:45:26;;;;;;;;;;;4.30;99.90;;;;;;5081172;28;20279;-66
2021/04/05 11:48:02;;;;;;;;;;;4.40;99.90;;;;;;5104130;27;19926;-66
2021/04/05 11:50:41;;;;;;;;;;;4.50;99.90;;;;;;5132841;27;20006;-66
2021/04/05 11:56:31;;;;;;;;;;;4.50;99.90;;;;;;5118445;27;19923;-66
2021/04/05 12:09:29;;;;;;;;;;;3.30;99.90;;;;;;5116394;28;20031;-65
2021/04/05 12:15:53;;;;;;;;;;;2.60;99.90;;;;;;5134474;27;19953;-65
2021/04/05 12:18:25;;;;;;;;;;;2.40;99.90;;;;;;5109572;27;20366;-66
2021/04/05 12:21:13;;;;;;;;;;;2.50;99.90;;;;;;5127341;27;20002;-65
2021/04/05 12:23:42;;;;;;;;;;;2.60;99.90;;;;;;5124372;27;19923;-66
2021/04/05 12:26:39;;;;;;;;;;;2.80;99.90;;;;;;5114075;28;19928;-66
2021/04/05 12:29:22;;;;;;;;;;;2.80;99.90;;;;;;5104026;27;19944;-66
2021/04/05 12:31:57;;;;;;;;;;;2.70;99.90;;;;;;5126321;27;20355;-66
2021/04/05 12:41:19;;;;;;;;;;;2.30;99.90;;;;;;5115456;28;19930;-67
2021/04/05 12:51:04;;;;;;;;;;;2.60;99.90;;;;;;5135773;27;19914;-65
2021/04/05 12:53:49;;;;;;;;;;;2.80;99.90;;;;;;5112364;27;19931;-66
2021/04/05 12:56:17;;;;;;;;;;;3.00;99.90;;;;;;5132298;27;19943;-66
2021/04/05 12:58:43;;;;;;;;;;;3.00;99.90;;;;;;5134797;27;19967;-66
2021/04/05 13:01:31;;;;;;;;;;;2.80;99.90;;;;;;5130182;27;20362;-66
2021/04/05 13:04:19;;;;;;;;;;;2.70;99.90;;;;;;5136130;27;19919;-66
2021/04/05 13:06:48;;;;;;;;;;;2.60;99.90;;;;;;5130842;27;19927;-66
2021/04/05 13:09:33;;;;;;;;;;;2.60;99.90;;;;;;5125787;27;19964;-66
2021/04/05 13:18:45;;;;;;;;;;;2.90;99.90;;;;;;5094916;28;19920;-65
2021/04/05 13:21:14;;;;;;;;;;;2.90;99.90;;;;;;5113253;27;19923;-66
2021/04/05 13:23:48;;;;;;;;;;;3.00;99.90;;;;;;5119715;27;19923;-64
2021/04/05 13:26:40;;;;;;;;;;;3.10;99.90;;;;;;5129941;27;19919;-66
2021/04/05 13:29:19;;;;;;;;;;;3.20;99.90;;;;;;5102228;27;19919;-66
2021/04/05 13:31:52;;;;;;;;;;;3.00;99.90;;;;;;5134385;27;19915;-65
2021/04/05 13:34:31;;;;;;;;;;;2.90;99.90;;;;;;5125419;27;20290;-66
2021/04/05 13:47:03;;;;;;;;;;;2.40;99.90;;;;;;5093892;28;19954;-65
2021/04/05 13:59:35;;;;;;;;;;;2.40;99.90;;;;;;5126181;27;19920;-65
2021/04/05 14:02:04;;;;;;;;;;;2.50;99.90;;;;;;5122612;27;19926;-66
2021/04/05 14:04:43;;;;;;;;;;;2.70;99.90;;;;;;5114623;28;20383;-66
2021/04/05 14:07:40;;;;;;;;;;;2.80;99.90;;;;;;5115264;28;19923;-67
2021/04/05 14:10:13;;;;;;;;;;;3.10;99.90;;;;;;5098217;28;19927;-66
2021/04/05 14:12:41;;;;;;;;;;;3.30;99.90;;;;;;5095762;28;20102;-66
2021/04/05 14:15:26;;;;;;;;;;;3.40;99.90;;;;;;5118781;28;20281;-66
2021/04/05 14:24:44;;;;;;;;;;;3.80;99.90;;;;;;5128318;28;19999;-66
2021/04/05 14:27:33;;;;;;;;;;;3.70;99.90;;;;;;5094608;28;19931;-67
2021/04/05 14:30:05;;;;;;;;;;;3.70;99.90;;;;;;5097442;28;19919;-65
2021/04/05 14:32:53;;;;;;;;;;;3.90;99.90;;;;;;5128101;28;19915;-65
2021/04/05 14:35:25;;;;;;;;;;;4.10;99.90;;;;;;5134653;28;19927;-66
2021/04/05 14:44:36;;;;;;;;;;;4.60;99.90;;;;;;5123808;28;19926;-66
2021/04/05 14:47:05;;;;;;;;;;;4.70;99.90;;;;;;5093543;28;19923;-65
2021/04/05 14:49:57;;;;;;;;;;;4.80;99.90;;;;;;5110122;28;20006;-65
2021/04/05 14:52:42;;;;;;;;;;;4.80;99.90;;;;;;5119609;28;19916;-65
2021/04/05 14:55:12;;;;;;;;;;;4.70;99.90;;;;;;5102472;28;19919;-65
2021/04/05 15:05:27;;;;;;;;;;;4.50;99.90;;;;;;5105422;28;20339;-64
2021/04/05 15:11:14;;;;;;;;;;;4.40;99.90;;;;;;5129375;27;19926;-64
2021/04/05 15:13:45;;;;;;;;;;;4.40;99.90;;;;;;5126493;27;19923;-63
2021/04/05 15:16:17;;;;;;;;;;;4.40;99.90;;;;;;5128877;27;19920;-63
2021/04/05 15:18:47;;;;;;;;;;;4.30;99.90;;;;;;5119071;27;19972;-64
2021/04/05 15:21:18;;;;;;;;;;;4.20;99.90;;;;;;5105765;28;19919;-64
2021/04/05 15:23:56;;;;;;;;;;;4.20;99.90;;;;;;5117451;28;19923;-63
2021/04/05 15:26:33;;;;;;;;;;;4.20;99.90;;;;;;5096510;28;19919;-65
2021/04/05 15:36:17;;;;;;;;;;;4.40;99.90;;;;;;5116528;28;19937;-63
2021/04/05 15:38:58;;;;;;;;;;;4.40;99.90;;;;;;5117343;27;19920;-64
2021/04/05 15:41:36;;;;;;;;;;;4.40;99.90;;;;;;5080264;27;20022;-68
2021/04/05 15:44:25;;;;;;;;;;;4.10;99.90;;;;;;5100847;27;19989;-66
2021/04/05 15:47:09;;;;;;;;;;;4.00;99.90;;;;;;5134919;27;19926;-67
2021/04/05 15:56:37;;;;;;;;;;;4.20;99.90;;;;;;5091997;27;20342;-68
2021/04/05 16:06:33;;;;;;;;;;;4.20;99.90;;;;;;5120217;27;19914;-64
2021/04/05 16:09:06;;;;;;;;;;;4.10;99.90;;;;;;5131110;27;20378;-65
2021/04/05 16:11:51;;;;;;;;;;;4.10;99.90;;;;;;5100375;27;19916;-66
2021/04/05 16:14:25;;;;;;;;;;;4.10;99.90;;;;;;5112220;27;19919;-65
2021/04/05 16:23:53;;;;;;;;;;;4.20;99.90;;;;;;5124506;27;19968;-65
2021/04/05 16:29:45;;;;;;;;;;;4.40;99.90;;;;;;5129178;27;19919;-68
2021/04/05 16:32:38;;;;;;;;;;;4.40;99.90;;;;;;5136862;27;19969;-67
2021/04/05 16:42:20;;;;;;;;;;;4.20;99.90;;;;;;5115161;27;19922;-68
2021/04/05 16:44:55;;;;;;;;;;;4.20;99.90;;;;;;5121274;27;19919;-67
2021/04/05 16:47:41;;;;;;;;;;;4.10;99.90;;;;;;5097791;28;20313;-67
2021/04/05 16:59:34;;;;;;;;;;;4.00;99.90;;;;;;5110232;28;19926;-67
2021/04/05 17:02:02;;;;;;;;;;;4.00;99.90;;;;;;5088051;27;19971;-68
2021/04/05 17:04:31;;;;;;;;;;;4.00;99.90;;;;;;5119130;27;19972;-67
2021/04/05 17:06:59;;;;;;;;;;;4.00;99.90;;;;;;5117003;27;19927;-66
2021/04/05 17:09:31;;;;;;;;;;;3.90;99.90;;;;;;5093492;28;19972;-66
2021/04/05 17:12:01;;;;;;;;;;;3.90;99.90;;;;;;5115209;28;19926;-66
2021/04/05 17:15:01;;;;;;;;;;;3.90;99.90;;;;;;5095421;28;20006;-67
2021/04/05 17:24:29;;;;;;;;;;;3.50;99.90;;;;;;5114765;28;19922;-66
2021/04/05 17:37:01;;;;;;;;;;;2.80;99.90;;;;;;5120367;27;19914;-66
2021/04/05 17:46:36;;;;;;;;;;;2.70;99.90;;;;;;5120381;27;19930;-66
2021/04/05 17:49:29;;;;;;;;;;;2.60;99.90;;;;;;5071983;28;19999;-65
2021/04/05 17:52:02;;;;;;;;;;;2.60;99.90;;;;;;5055151;28;19924;-66
2021/04/05 17:54:31;;;;;;;;;;;2.60;99.90;;;;;;5094120;27;19926;-66
2021/04/05 18:03:40;;;;;;;;;;;2.30;99.90;;;;;;5117131;27;19922;-65
2021/04/05 18:09:48;;;;;;;;;;;2.10;99.90;;;;;;5115395;27;19965;-66
2021/04/05 18:12:26;;;;;;;;;;;2.00;99.90;;;;;;5098872;28;19965;-66
2021/04/05 18:14:57;;;;;;;;;;;2.10;99.90;;;;;;5097441;28;19920;-67
2021/04/05 18:24:34;;;;;;;;;;;2.00;99.90;;;;;;5118869;28;19922;-66
2021/04/05 18:27:18;;;;;;;;;;;1.90;99.90;;;;;;5121149;28;19963;-67
2021/04/05 18:30:02;;;;;;;;;;;1.90;99.90;;;;;;5117385;28;19920;-64
2021/04/05 18:32:40;;;;;;;;;;;2.00;99.90;;;;;;5097905;28;19927;-70
2021/04/05 18:35:25;;;;;;;;;;;1.90;99.90;;;;;;5117040;28;19931;-71
2021/04/05 18:37:58;;;;;;;;;;;1.90;99.90;;;;;;5120707;28;19926;-71
2021/04/05 18:40:48;;;;;;;;;;;1.90;99.90;;;;;;5129102;28;19919;-71
2021/04/05 18:43:45;;;;;;;;;;;1.90;99.90;;;;;;5080247;28;19919;-69
2021/04/05 18:49:46;;;;;;;;;;;2.00;99.90;;;;;;5118531;27;19914;-70
2021/04/05 18:52:18;;;;;;;;;;;2.00;99.90;;;;;;5117871;28;20006;-70
2021/04/05 19:05:00;;;;;;;;;;;1.90;99.90;;;;;;5118482;27;19926;-70
2021/04/05 19:07:56;;;;;;;;;;;1.90;99.90;;;;;;5135834;27;20418;-70
2021/04/05 19:10:25;;;;;;;;;;;1.90;99.90;;;;;;5123197;27;19944;-69
2021/04/05 19:16:44;;;;;;;;;;;1.80;99.90;;;;;;5136825;27;19913;-70
2021/04/05 19:22:51;;;;;;;;;;;1.90;99.90;;;;;;5114378;27;19934;-69
2021/04/05 19:35:26;;;;;;;;;;;2.10;99.90;;;;;;5118985;27;19920;-69
2021/04/05 19:38:11;;;;;;;;;;;2.20;99.90;;;;;;5136527;27;19963;-68
2021/04/05 19:47:12;;;;;;;;;;;2.20;99.90;;;;;;5128725;27;20381;-68
2021/04/05 19:56:05;;;;;;;;;;;2.20;99.90;;;;;;5103892;27;19927;-68
2021/04/05 19:58:52;;;;;;;;;;;2.10;99.90;;;;;;5135281;27;19919;-68
2021/04/05 20:05:02;;;;;;;;;;;2.10;99.90;;;;;;5122491;27;19966;-68
2021/04/05 20:07:38;;;;;;;;;;;2.10;99.90;;;;;;5094054;28;19952;-67
2021/04/05 20:10:23;;;;;;;;;;;2.20;99.90;;;;;;5096665;27;20029;-67
2021/04/05 20:16:31;;;;;;;;;;;2.20;99.90;;;;;;5134631;27;19972;-67
2021/04/05 20:22:37;;;;;;;;;;;2.20;99.90;;;;;;5132388;27;19918;-67
2021/04/05 20:25:23;;;;;;;;;;;2.20;99.90;;;;;;5093978;27;19920;-66
2021/04/05 20:28:07;;;;;;;;;;;2.20;99.90;;;;;;5128320;27;19925;-67
2021/04/05 20:37:33;;;;;;;;;;;2.30;99.90;;;;;;5136194;27;19913;-67
2021/04/05 20:40:06;;;;;;;;;;;2.30;99.90;;;;;;5130358;27;19919;-67
2021/04/05 20:43:04;;;;;;;;;;;2.30;99.90;;;;;;5136118;27;20289;-68
2021/04/05 20:52:32;;;;;;;;;;;2.40;99.90;;;;;;5118282;27;19974;-68
2021/04/05 20:55:29;;;;;;;;;;;2.50;99.90;;;;;;5095418;28;20303;-68
2021/04/05 21:08:14;;;;;;;;;;;2.60;99.90;;;;;;5111652;27;19951;-68
2021/04/05 21:17:31;;;;;;;;;;;2.60;99.90;;;;;;5109438;28;19915;-68
2021/04/05 21:19:59;;;;;;;;;;;2.60;99.90;;;;;;5126346;27;19919;-68
2021/04/05 21:22:28;;;;;;;;;;;2.60;99.90;;;;;;5076666;28;19994;-68
2021/04/05 21:25:28;;;;;;;;;;;2.60;99.90;;;;;;5077290;28;19927;-68
2021/04/05 21:28:09;;;;;;;;;;;2.60;99.90;;;;;;5132542;27;20375;-68
2021/04/05 21:30:52;;;;;;;;;;;2.60;99.90;;;;;;5133644;27;19926;-68
2021/04/05 21:40:11;;;;;;;;;;;2.60;99.90;;;;;;5094694;27;19958;-67
2021/04/05 21:43:06;;;;;;;;;;;2.50;99.90;;;;;;5116925;27;19923;-67
2021/04/05 21:45:56;;;;;;;;;;;2.60;99.90;;;;;;5115424;27;19984;-68
2021/04/05 21:55:08;;;;;;;;;;;2.60;99.90;;;;;;5133492;27;19919;-67
2021/04/05 22:04:21;;;;;;;;;;;2.60;99.90;;;;;;5124333;27;19922;-67
2021/04/05 22:10:24;;;;;;;;;;;2.60;99.90;;;;;;5127856;27;19926;-67
2021/04/05 22:13:07;;;;;;;;;;;2.60;99.90;;;;;;5099317;28;20364;-67
2021/04/05 22:22:32;;;;;;;;;;;2.40;99.90;;;;;;5117325;28;19919;-67
2021/04/05 22:25:01;;;;;;;;;;;2.40;99.90;;;;;;5138733;27;19919;-67
2021/04/05 22:27:39;;;;;;;;;;;2.30;99.90;;;;;;5117852;27;19965;-67
2021/04/05 22:30:36;;;;;;;;;;;2.30;99.90;;;;;;5099772;27;19920;-68
2021/04/05 22:33:02;;;;;;;;;;;2.30;99.90;;;;;;5135085;27;19969;-68
2021/04/05 22:35:51;;;;;;;;;;;2.20;99.90;;;;;;5122706;27;19923;-67
2021/04/05 22:38:27;;;;;;;;;;;2.10;99.90;;;;;;5105268;27;19926;-67
2021/04/05 22:48:13;;;;;;;;;;;2.30;99.90;;;;;;5113547;28;19917;-67
2021/04/05 22:50:41;;;;;;;;;;;2.30;99.90;;;;;;5132025;27;19922;-67
2021/04/05 23:18:23;;;;;;;;;;;2.10;99.90;;;;;;5121013;27;19999;-67
2021/04/05 23:20:59;;;;;;;;;;;2.10;99.90;;;;;;5087311;27;20363;-67
2021/04/05 23:27:18;;;;;;;;;;;2.00;99.90;;;;;;5120147;27;19972;-67
2021/04/05 23:30:02;;;;;;;;;;;1.90;99.90;;;;;;5104434;28;19919;-67
2021/04/05 23:32:32;;;;;;;;;;;1.80;99.90;;;;;;5107467;27;19970;-67
2021/04/05 23:35:04;;;;;;;;;;;1.70;99.90;;;;;;5127753;27;19955;-68
2021/04/05 23:37:31;;;;;;;;;;;1.60;99.90;;;;;;5097537;28;20007;-68
2021/04/05 23:40:10;;;;;;;;;;;1.70;99.90;;;;;;5126042;27;20291;-68
2021/04/05 23:43:04;;;;;;;;;;;1.70;99.90;;;;;;5124250;27;19927;-68
2021/04/05 23:45:50;;;;;;;;;;;1.70;99.90;;;;;;5133617;27;19923;-67
2021/04/05 23:55:01;;;;;;;;;;;1.40;99.90;;;;;;5121240;27;19915;-68
2021/04/05 23:57:34;;;;;;;;;;;1.30;99.90;;;;;;5112419;28;19925;-68
